Latest Weather Observations for Ocean Reef

IDW60801

Issued at 10:03 am WST Sunday 2 August 2015 (issued every 30 minutes, with the page automatically refreshed every 10 minutes)

About weather observations | Map of weather stations | Latest weather observations for WA | Other Formats
Station Details ID: 009214 Name: OCEAN REEF Lat: -31.76 Lon: 115.73 Height: 10.0 m
Data from the previous 72 hours. | See also: Recent months at Ocean Reef
Date/Time
WST
Temp
°C
App
Temp
°C
Dew
Point
Rel
Hum
%
Delta-T
°C
Wind Press
QNH
hPa
Press
MSL
hPa
Rain
since 9 am
mm
Dir
 
Spd
km/h
Gust
km/h
Spd
kts
Gust
kts
02/10:00am - - - - - ESE 17 28 9 15 - - -
02/09:30am - - - - - SE 17 28 9 15 - - -
02/09:00am - - - - - SE 19 30 10 16 - - -
02/08:30am - - - - - ESE 13 19 7 10 - - -
02/08:00am - - - - - ESE 11 17 6 9 - - -
02/07:30am - - - - - ESE 11 15 6 8 - - -
02/07:00am - - - - - ESE 11 15 6 8 - - -
02/06:30am - - - - - ESE 11 15 6 8 - - -
02/06:00am - - - - - ESE 11 15 6 8 - - -
02/05:30am - - - - - ESE 13 19 7 10 - - -
02/05:00am - - - - - E 11 15 6 8 - - -
02/04:30am - - - - - ENE 11 15 6 8 - - -
02/04:00am - - - - - ESE 13 17 7 9 - - -
02/03:30am - - - - - ESE 13 17 7 9 - - -
02/03:00am - - - - - ESE 13 15 7 8 - - -
02/02:30am - - - - - SE 15 17 8 9 - - -
02/02:00am - - - - - ESE 13 15 7 8 - - -
02/01:30am - - - - - ESE 13 15 7 8 - - -
02/01:00am - - - - - SE 11 15 6 8 - - -
02/12:30am - - - - - ESE 11 13 6 7 - - -
02/12:00am - - - - - ESE 13 13 7 7 - - -
 
Date/Time
WST
Temp
°C
App
Temp
°C
Dew
Point
Rel
Hum
%
Delta-T
°C
Wind Press
QNH
hPa
Press
MSL
hPa
Rain
since 9 am
mm
Dir
 
Spd
km/h
Gust
km/h
Spd
kts
Gust
kts
01/11:30pm - - - - - ESE 11 13 6 7 - - -
01/11:00pm - - - - - ESE 11 13 6 7 - - -
01/10:30pm - - - - - ESE 11 13 6 7 - - -
01/10:00pm - - - - - ESE 13 17 7 9 - - -
01/09:30pm - - - - - ESE 13 17 7 9 - - -
01/09:00pm - - - - - ESE 13 19 7 10 - - -
01/08:30pm - - - - - ESE 11 15 6 8 - - -
01/08:00pm - - - - - ESE 17 28 9 15 - - -
01/07:30pm - - - - - ESE 17 30 9 16 - - -
01/07:00pm - - - - - ESE 19 26 10 14 - - -
01/06:30pm - - - - - ESE 17 26 9 14 - - -
01/06:00pm - - - - - ESE 19 32 10 17 - - -
01/05:30pm - - - - - ESE 15 26 8 14 - - -
01/05:00pm - - - - - ESE 22 35 12 19 - - -
01/04:30pm - - - - - SE 22 30 12 16 - - -
01/04:00pm - - - - - SE 24 32 13 17 - - -
01/03:30pm - - - - - ESE 20 32 11 17 - - -
01/03:00pm - - - - - SE 24 39 13 21 - - -
01/02:30pm - - - - - ESE 26 37 14 20 - - -
01/02:00pm - - - - - ESE 20 32 11 17 - - -
01/01:30pm - - - - - SE 22 35 12 19 - - -
01/01:00pm - - - - - ESE 26 39 14 21 - - -
01/12:30pm - - - - - ESE 24 32 13 17 - - -
01/12:00pm - - - - - SE 22 33 12 18 - - -
01/11:30am - - - - - SE 22 33 12 18 - - -
01/11:00am - - - - - ESE 24 35 13 19 - - -
01/10:30am - - - - - SE 28 39 15 21 - - -
01/10:00am - - - - - SE 28 44 15 24 - - -
01/09:30am - - - - - SE 26 39 14 21 - - -
01/09:00am - - - - - SSE 26 35 14 19 - - -
01/08:30am - - - - - SE 24 35 13 19 - - -
01/08:00am - - - - - SE 15 24 8 13 - - -
01/07:30am - - - - - SSE 13 17 7 9 - - -
01/07:00am - - - - - SSE 13 17 7 9 - - -
01/06:30am - - - - - SSE 11 19 6 10 - - -
01/06:00am - - - - - SSE 13 24 7 13 - - -
01/05:30am - - - - - SE 15 22 8 12 - - -
01/05:00am - - - - - SE 19 28 10 15 - - -
01/04:30am - - - - - SE 19 26 10 14 - - -
01/04:00am - - - - - SE 22 35 12 19 - - -
01/03:30am - - - - - SE 17 26 9 14 - - -
01/03:00am - - - - - SE 15 24 8 13 - - -
01/02:30am - - - - - SE 15 22 8 12 - - -
01/02:00am - - - - - SE 20 30 11 16 - - -
01/01:30am - - - - - SE 20 30 11 16 - - -
01/01:00am - - - - - SE 15 24 8 13 - - -
01/12:30am - - - - - SE 17 28 9 15 - - -
01/12:00am - - - - - ESE 24 39 13 21 - - -
 
Date/Time
WST
Temp
°C
App
Temp
°C
Dew
Point
Rel
Hum
%
Delta-T
°C
Wind Press
QNH
hPa
Press
MSL
hPa
Rain
since 9 am
mm
Dir
 
Spd
km/h
Gust
km/h
Spd
kts
Gust
kts
31/11:30pm - - - - - SE 20 33 11 18 - - -
31/11:00pm - - - - - SE 17 24 9 13 - - -
31/10:30pm - - - - - SE 19 26 10 14 - - -
31/10:00pm - - - - - SE 15 19 8 10 - - -
31/09:30pm - - - - - SE 15 20 8 11 - - -
31/09:00pm - - - - - SSW 17 20 9 11 - - -
31/08:30pm - - - - - SSW 20 24 11 13 - - -
31/08:00pm - - - - - SSW 20 24 11 13 - - -
31/07:30pm - - - - - SSW 20 28 11 15 - - -
31/07:00pm - - - - - SSW 20 26 11 14 - - -
31/06:30pm - - - - - SSW 15 17 8 9 - - -
31/06:00pm - - - - - S 11 13 6 7 - - -
31/05:30pm - - - - - SE 9 11 5 6 - - -
31/05:00pm - - - - - S 13 17 7 9 - - -
31/04:30pm - - - - - S 13 15 7 8 - - -
31/04:00pm - - - - - SSW 13 17 7 9 - - -
31/03:30pm - - - - - WNW 6 9 3 5 - - -
31/03:00pm - - - - - NW 9 11 5 6 - - -
31/02:30pm - - - - - S 11 15 6 8 - - -
31/02:00pm - - - - - S 19 24 10 13 - - -
31/01:30pm - - - - - S 19 24 10 13 - - -
31/01:00pm - - - - - S 13 15 7 8 - - -
31/12:30pm - - - - - WSW 6 7 3 4 - - -
31/12:00pm - - - - - SSW 7 9 4 5 - - -
31/11:30am - - - - - SSW 7 9 4 5 - - -
31/11:00am - - - - - WSW 6 7 3 4 - - -
31/10:30am - - - - - NNW 9 11 5 6 - - -
31/10:00am - - - - - NNE 9 13 5 7 - - -
31/09:30am - - - - - NNE 11 15 6 8 - - -
31/09:00am - - - - - NE 13 17 7 9 - - -
31/08:30am - - - - - NNE 13 19 7 10 - - -
31/08:00am - - - - - NNE 13 19 7 10 - - -
31/07:30am - - - - - NNE 13 19 7 10 - - -
31/07:00am - - - - - N 19 26 10 14 - - -
31/06:30am - - - - - NNW 26 33 14 18 - - -
31/06:00am - - - - - NNW 26 33 14 18 - - -
31/05:30am - - - - - N 30 52 16 28 - - -
31/05:28am - - - - - NNE 28 52 15 28 - - -
31/05:00am - - - - - NNE 24 33 13 18 - - -
31/04:30am - - - - - NE 24 33 13 18 - - -
31/04:00am - - - - - NNE 28 35 15 19 - - -
31/03:30am - - - - - NE 28 39 15 21 - - -
31/03:00am - - - - - NNE 28 37 15 20 - - -
31/02:30am - - - - - NNE 28 41 15 22 - - -
31/02:00am - - - - - NNE 30 44 16 24 - - -
31/01:30am - - - - - NE 28 44 15 24 - - -
31/01:00am - - - - - NNE 26 39 14 21 - - -
31/12:30am - - - - - NE 26 35 14 19 - - -
31/12:00am - - - - - NNE 24 39 13 21 - - -
 
Date/Time
WST
Temp
°C
App
Temp
°C
Dew
Point
Rel
Hum
%
Delta-T
°C
Wind Press
QNH
hPa
Press
MSL
hPa
Rain
since 9 am
mm
Dir
 
Spd
km/h
Gust
km/h
Spd
kts
Gust
kts
30/11:30pm - - - - - NNE 22 32 12 17 - - -
30/11:00pm - - - - - NE 20 28 11 15 - - -
30/10:30pm - - - - - NE 20 30 11 16 - - -
30/10:00pm - - - - - NE 15 20 8 11 - - -
30/09:30pm - - - - - NE 19 26 10 14 - - -
30/09:00pm - - - - - NNE 24 35 13 19 - - -
30/08:30pm - - - - - NNE 24 35 13 19 - - -
30/08:00pm - - - - - NNE 30 41 16 22 - - -
30/07:30pm - - - - - NNE 30 50 16 27 - - -
30/07:16pm - - - - - NNE 30 48 16 26 - - -
30/07:00pm - - - - - N 32 48 17 26 - - -
30/06:36pm - - - - - N 46 65 25 35 - - -
30/06:30pm - - - - - N 52 63 28 34 - - -
30/06:00pm - - - - - N 28 48 15 26 - - -
30/05:59pm - - - - - N 28 48 15 26 - - -
30/05:30pm - - - - - NNE 24 33 13 18 - - -
30/05:00pm - - - - - N 19 26 10 14 - - -
30/04:30pm - - - - - NNE 17 22 9 12 - - -
30/04:00pm - - - - - NNE 13 22 7 12 - - -
30/03:30pm - - - - - NNE 19 32 10 17 - - -
30/03:00pm - - - - - NNE 13 22 7 12 - - -
30/02:30pm - - - - - N 19 28 10 15 - - -
30/02:00pm - - - - - N 19 28 10 15 - - -
30/01:30pm - - - - - N 15 22 8 12 - - -
30/01:00pm - - - - - N 19 30 10 16 - - -
30/12:30pm - - - - - NNE 17 32 9 17 - - -
30/12:00pm - - - - - NNE 17 26 9 14 - - -
30/11:30am - - - - - NE 19 26 10 14 - - -
30/11:00am - - - - - NE 19 28 10 15 - - -
30/10:30am - - - - - NE 20 28 11 15 - - -

Other Formats:

Comma delimited format used in spreadsheet applications
http://www.bom.gov.au/fwo/IDW60801/IDW60801.94607.axf

JavaScript Object Notation format (JSON) in row-major order
http://www.bom.gov.au/fwo/IDW60801/IDW60801.94607.json